createdAt,value
2024-03-09T00:00:56.929Z,96.00
2024-03-09T00:03:24.529Z,96.10
2024-03-09T00:05:52.901Z,96.60
2024-03-09T00:08:20.492Z,96.40
2024-03-09T00:10:48.145Z,96.60
2024-03-09T00:13:15.661Z,96.80
2024-03-09T00:15:43.470Z,96.60
2024-03-09T00:18:11.687Z,96.90
2024-03-09T00:20:39.218Z,96.90
2024-03-09T00:23:07.932Z,97.10
2024-03-09T00:25:34.383Z,97.20
2024-03-09T00:28:01.989Z,97.00
2024-03-09T00:30:33.286Z,97.20
2024-03-09T00:33:00.907Z,97.20
2024-03-09T00:35:30.807Z,97.10
2024-03-09T00:37:58.465Z,97.10
2024-03-09T00:40:32.092Z,96.90
2024-03-09T00:42:59.472Z,97.10
2024-03-09T00:45:27.022Z,97.10
2024-03-09T00:47:54.755Z,96.90
2024-03-09T00:50:24.832Z,97.10
2024-03-09T00:52:53.239Z,97.10
2024-03-09T00:55:20.776Z,97.10
2024-03-09T00:57:52.124Z,97.20
2024-03-09T01:00:20.136Z,97.40
2024-03-09T01:02:47.664Z,97.30
2024-03-09T01:05:18.914Z,97.50
2024-03-09T01:07:46.525Z,97.40
2024-03-09T01:10:14.078Z,97.10
2024-03-09T01:12:41.704Z,97.10
2024-03-09T01:15:12.734Z,97.50
2024-03-09T01:17:41.078Z,97.60
2024-03-09T01:20:09.177Z,97.60
2024-03-09T01:22:37.187Z,97.90
2024-03-09T01:25:04.712Z,97.90
2024-03-09T01:27:32.320Z,97.90
2024-03-09T01:30:02.913Z,97.70
2024-03-09T01:32:30.385Z,97.40
2024-03-09T01:34:58.231Z,97.40
2024-03-09T01:37:26.539Z,97.20
2024-03-09T01:39:53.906Z,97.10
2024-03-09T01:42:22.132Z,97.40
2024-03-09T01:44:50.463Z,97.40
2024-03-09T01:47:18.052Z,97.40
2024-03-09T01:49:46.479Z,97.30
2024-03-09T01:52:14.103Z,97.30
2024-03-09T01:54:43.046Z,97.30
2024-03-09T01:57:10.068Z,97.30
2024-03-09T01:59:37.655Z,97.50
2024-03-09T02:02:05.429Z,97.30
2024-03-09T02:04:32.953Z,97.20
2024-03-09T02:07:00.523Z,97.40
2024-03-09T02:09:28.121Z,97.40
2024-03-09T02:11:55.826Z,97.40
2024-03-09T02:14:23.322Z,97.40
2024-03-09T02:16:50.962Z,97.50
2024-03-09T02:19:18.507Z,97.50
2024-03-09T02:21:46.080Z,97.40
2024-03-09T02:24:13.674Z,97.30
2024-03-09T02:26:41.294Z,97.40
2024-03-09T02:29:08.930Z,97.40
2024-03-09T02:31:36.560Z,97.40
2024-03-09T02:34:04.828Z,98.10
2024-03-09T02:36:32.417Z,97.70
2024-03-09T02:39:00.784Z,97.60
2024-03-09T02:41:28.390Z,97.60
2024-03-09T02:43:56.028Z,97.40
2024-03-09T02:46:23.564Z,97.60
2024-03-09T02:48:51.973Z,98.10
2024-03-09T02:51:19.558Z,98.10
2024-03-09T02:53:47.153Z,98.30
2024-03-09T02:56:14.815Z,98.30
2024-03-09T02:58:42.412Z,98.20
2024-03-09T03:01:10.023Z,98.40
2024-03-09T03:04:02.406Z,98.70
2024-03-09T03:06:30.040Z,98.70
2024-03-09T03:08:57.578Z,98.90
2024-03-09T03:11:25.348Z,99.00
2024-03-09T03:13:52.910Z,99.10
2024-03-09T03:16:23.377Z,99.20
2024-03-09T03:18:51.760Z,99.50
2024-03-09T03:21:19.346Z,99.50
2024-03-09T03:23:49.626Z,99.50
2024-03-09T03:26:18.051Z,99.70
2024-03-09T03:28:45.629Z,99.60
2024-03-09T03:31:13.169Z,99.70
2024-03-09T03:33:40.781Z,99.80
2024-03-09T03:36:11.813Z,99.90
2024-03-09T03:38:39.406Z,99.90
2024-03-09T03:41:07.102Z,99.90
2024-03-09T03:43:37.511Z,99.90
2024-03-09T03:46:05.904Z,99.70
2024-03-09T03:48:33.487Z,99.60
2024-03-09T03:51:01.112Z,99.30
2024-03-09T03:53:28.698Z,99.40
2024-03-09T03:55:56.377Z,99.60
2024-03-09T03:58:23.921Z,99.80
2024-03-09T04:00:51.554Z,99.90
2024-03-09T04:03:19.119Z,99.90
2024-03-09T04:05:46.847Z,99.90
2024-03-09T04:08:14.429Z,99.90
2024-03-09T04:10:42.007Z,99.90
2024-03-09T04:13:09.583Z,99.90
2024-03-09T04:15:37.150Z,99.90
2024-03-09T04:18:04.780Z,99.90
2024-03-09T04:20:38.070Z,99.90
2024-03-09T04:23:05.867Z,99.90
2024-03-09T04:25:33.382Z,99.90
2024-03-09T04:28:01.909Z,99.90
2024-03-09T04:30:29.487Z,99.90
2024-03-09T04:32:58.055Z,99.90
2024-03-09T04:35:26.314Z,99.90
2024-03-09T04:37:54.688Z,99.90
2024-03-09T04:40:22.207Z,99.90
2024-03-09T04:42:49.788Z,99.90
2024-03-09T04:45:26.058Z,99.90
2024-03-09T04:47:53.671Z,99.90
2024-03-09T04:50:21.412Z,99.90
2024-03-09T04:52:51.475Z,99.90
2024-03-09T04:55:16.429Z,99.90
2024-03-09T04:57:44.016Z,99.90
2024-03-09T05:00:12.447Z,99.90
2024-03-09T05:02:40.029Z,99.90
2024-03-09T05:05:07.741Z,99.90
2024-03-09T05:07:35.283Z,99.90
2024-03-09T05:10:03.630Z,99.90
2024-03-09T05:12:31.213Z,99.90
2024-03-09T05:14:59.574Z,99.90
2024-03-09T05:17:27.208Z,99.90
2024-03-09T05:19:54.788Z,99.90
2024-03-09T05:22:22.372Z,99.90
2024-03-09T05:24:50.716Z,99.90
2024-03-09T05:27:18.317Z,99.90
2024-03-09T05:29:45.960Z,99.90
2024-03-09T05:32:13.622Z,99.90
2024-03-09T05:34:41.159Z,99.90
2024-03-09T05:37:08.732Z,99.90
2024-03-09T05:39:36.274Z,99.90
2024-03-09T05:42:03.911Z,99.90
2024-03-09T05:44:31.481Z,99.90
2024-03-09T05:46:59.105Z,99.90
2024-03-09T05:49:26.660Z,99.90
2024-03-09T05:51:54.280Z,99.90
2024-03-09T05:54:21.866Z,99.90
2024-03-09T05:56:50.230Z,99.90
2024-03-09T05:59:17.842Z,99.90
2024-03-09T06:01:45.461Z,99.90
2024-03-09T06:04:12.984Z,99.90
2024-03-09T06:06:40.589Z,99.90
2024-03-09T06:09:08.946Z,99.90
2024-03-09T06:11:36.618Z,99.90
2024-03-09T06:14:04.942Z,99.90
2024-03-09T06:16:32.522Z,99.90
2024-03-09T06:19:00.076Z,99.90
2024-03-09T06:21:27.671Z,99.90
2024-03-09T06:23:55.250Z,99.90
2024-03-09T06:26:23.636Z,99.90
2024-03-09T06:28:51.247Z,99.90
2024-03-09T06:31:18.825Z,99.90
2024-03-09T06:33:46.413Z,99.90
2024-03-09T06:36:14.825Z,99.90
2024-03-09T06:38:43.137Z,99.90
2024-03-09T06:41:10.738Z,99.90
2024-03-09T06:43:39.125Z,99.90
2024-03-09T06:46:06.657Z,99.90
2024-03-09T06:48:34.237Z,99.90
2024-03-09T06:51:01.872Z,99.90
2024-03-09T06:53:30.243Z,99.90
2024-03-09T06:55:57.812Z,99.90
2024-03-09T06:58:26.217Z,99.90
2024-03-09T07:00:53.856Z,99.90
2024-03-09T07:03:21.352Z,99.90
2024-03-09T07:05:48.952Z,99.90
2024-03-09T07:08:16.605Z,99.90
2024-03-09T07:10:44.906Z,99.90
2024-03-09T07:13:12.497Z,99.90
2024-03-09T07:15:40.824Z,99.90
2024-03-09T07:18:10.583Z,99.90
2024-03-09T07:20:36.806Z,99.90
2024-03-09T07:23:04.411Z,99.90
2024-03-09T07:25:32.119Z,99.90
2024-03-09T07:27:59.907Z,99.90
2024-03-09T07:30:27.267Z,99.90
2024-03-09T07:32:58.093Z,99.90
2024-03-09T07:35:31.878Z,99.90
2024-03-09T07:38:02.913Z,99.90
2024-03-09T07:40:33.760Z,99.90
2024-03-09T07:43:02.086Z,99.90
2024-03-09T07:45:29.415Z,99.90
2024-03-09T07:47:56.974Z,99.90
2024-03-09T07:50:24.887Z,99.90
2024-03-09T07:52:54.996Z,99.90
2024-03-09T07:55:22.404Z,99.90
2024-03-09T07:58:05.388Z,99.90
2024-03-09T08:00:24.533Z,99.90
2024-03-09T08:02:52.190Z,99.90
2024-03-09T08:05:20.683Z,99.90
2024-03-09T08:07:49.011Z,99.90
2024-03-09T08:10:21.670Z,99.90
2024-03-09T08:12:49.266Z,99.90
2024-03-09T08:15:16.908Z,99.90
2024-03-09T08:17:44.514Z,99.90
2024-03-09T08:20:13.111Z,99.40
2024-03-09T08:22:40.499Z,99.40
2024-03-09T08:25:16.983Z,99.20
2024-03-09T08:27:44.592Z,98.90
2024-03-09T08:30:12.174Z,98.50
2024-03-09T08:32:39.819Z,98.40
2024-03-09T08:35:07.635Z,98.30
2024-03-09T08:37:35.878Z,98.30
2024-03-09T08:40:03.467Z,98.00
2024-03-09T08:42:31.051Z,97.90
2024-03-09T08:45:00.098Z,97.20
2024-03-09T08:47:26.324Z,97.00
2024-03-09T08:49:53.943Z,97.10
2024-03-09T08:52:21.494Z,97.10
2024-03-09T08:54:49.115Z,96.80
2024-03-09T08:57:16.700Z,96.60
2024-03-09T08:59:44.286Z,96.40
2024-03-09T09:02:11.921Z,96.40
2024-03-09T09:04:39.514Z,96.20
2024-03-09T09:07:07.063Z,96.10
2024-03-09T09:09:34.700Z,96.10
2024-03-09T09:12:02.397Z,95.80
2024-03-09T09:14:29.885Z,95.60
2024-03-09T09:16:57.508Z,95.40
2024-03-09T09:19:25.069Z,94.90
2024-03-09T09:21:52.664Z,94.70
2024-03-09T09:24:21.228Z,94.50
2024-03-09T09:26:48.757Z,94.20
2024-03-09T09:29:16.380Z,94.00
2024-03-09T09:31:44.846Z,93.90
2024-03-09T09:34:12.394Z,93.90
2024-03-09T09:36:39.974Z,93.90
2024-03-09T09:39:07.591Z,94.00
2024-03-09T09:41:35.214Z,93.80
2024-03-09T09:44:02.894Z,93.80
2024-03-09T09:46:31.249Z,92.60
2024-03-09T09:48:58.824Z,92.60
2024-03-09T09:51:26.409Z,92.50
2024-03-09T09:53:54.049Z,92.40
2024-03-09T09:56:24.483Z,92.20
2024-03-09T09:58:52.802Z,91.30
2024-03-09T10:01:20.384Z,91.30
2024-03-09T10:03:47.943Z,91.60
2024-03-09T10:06:24.427Z,91.20
2024-03-09T10:08:52.062Z,91.20
2024-03-09T10:11:19.706Z,91.40
2024-03-09T10:13:47.414Z,91.50
2024-03-09T10:16:18.877Z,91.90
2024-03-09T10:18:46.454Z,91.90
2024-03-09T10:21:14.085Z,91.60
2024-03-09T10:23:41.655Z,91.40
2024-03-09T10:26:09.305Z,91.40
2024-03-09T10:28:36.858Z,91.20
2024-03-09T10:31:04.451Z,90.50
2024-03-09T10:33:36.746Z,89.50
2024-03-09T10:36:02.423Z,89.40
2024-03-09T10:38:30.008Z,88.80
2024-03-09T10:41:00.547Z,88.50
2024-03-09T10:43:28.129Z,88.00
2024-03-09T10:45:58.305Z,88.10
2024-03-09T10:48:25.873Z,87.80
2024-03-09T10:51:08.316Z,86.90
2024-03-09T10:54:00.812Z,85.00
2024-03-09T10:56:28.451Z,84.30
2024-03-09T10:58:56.085Z,83.90
2024-03-09T11:01:24.249Z,84.20
2024-03-09T11:03:52.030Z,84.60
2024-03-09T11:06:20.463Z,85.30
2024-03-09T11:08:47.948Z,84.50
2024-03-09T11:11:15.655Z,84.50
2024-03-09T11:13:43.230Z,83.90
2024-03-09T11:16:10.829Z,83.10
2024-03-09T11:18:38.388Z,83.20
2024-03-09T11:21:06.734Z,82.80
2024-03-09T11:23:36.756Z,82.80
2024-03-09T11:26:04.639Z,82.70
2024-03-09T11:28:34.916Z,81.10
2024-03-09T11:31:17.914Z,80.60
2024-03-09T11:33:50.877Z,80.40
2024-03-09T11:36:41.249Z,80.40
2024-03-09T11:39:08.843Z,81.00
2024-03-09T11:41:39.282Z,80.30
2024-03-09T11:44:07.078Z,77.70
2024-03-09T11:46:38.108Z,78.10
2024-03-09T11:49:05.534Z,77.70
2024-03-09T11:51:35.903Z,76.20
2024-03-09T11:54:03.457Z,76.30
2024-03-09T11:56:31.054Z,76.40
2024-03-09T11:58:58.729Z,76.40
2024-03-09T12:01:26.264Z,76.40
2024-03-09T12:03:53.798Z,75.60
2024-03-09T12:06:21.421Z,75.40
2024-03-09T12:08:48.996Z,75.30
2024-03-09T12:11:16.644Z,74.60
2024-03-09T12:13:44.217Z,74.40
2024-03-09T12:16:12.526Z,73.60
2024-03-09T12:18:40.109Z,73.60
2024-03-09T12:21:08.499Z,74.10
2024-03-09T12:23:36.854Z,72.60
2024-03-09T12:26:04.530Z,72.50
2024-03-09T12:28:32.082Z,72.50
2024-03-09T12:30:59.652Z,71.80
2024-03-09T12:33:28.084Z,71.60
2024-03-09T12:36:01.300Z,71.60
2024-03-09T12:38:31.604Z,71.50
2024-03-09T12:40:56.578Z,71.10
2024-03-09T12:43:24.146Z,71.20
2024-03-09T12:45:54.390Z,71.60
2024-03-09T12:48:21.978Z,70.80
2024-03-09T12:50:49.610Z,70.50
2024-03-09T12:53:17.262Z,70.00
2024-03-09T12:55:44.791Z,69.40
2024-03-09T12:58:13.266Z,67.40
2024-03-09T13:00:41.555Z,67.20
2024-03-09T13:03:09.077Z,67.10
2024-03-09T13:05:36.719Z,67.20
2024-03-09T13:08:04.389Z,67.00
2024-03-09T13:10:32.241Z,65.40
2024-03-09T13:12:59.552Z,65.20
2024-03-09T13:15:27.122Z,65.40
2024-03-09T13:17:54.727Z,65.20
2024-03-09T13:20:22.351Z,64.60
2024-03-09T13:22:50.695Z,63.50
2024-03-09T13:25:18.230Z,63.40
2024-03-09T13:27:46.614Z,62.30
2024-03-09T13:30:20.700Z,62.50
2024-03-09T13:32:48.316Z,62.40
2024-03-09T13:35:16.752Z,62.80
2024-03-09T13:37:45.104Z,62.80
2024-03-09T13:40:12.623Z,62.80
2024-03-09T13:42:41.000Z,63.00
2024-03-09T13:45:09.402Z,63.40
2024-03-09T13:47:36.987Z,63.30
2024-03-09T13:50:04.641Z,63.70
2024-03-09T13:52:32.181Z,63.80
2024-03-09T13:55:00.538Z,64.70
2024-03-09T13:57:28.150Z,64.60
2024-03-09T13:59:58.204Z,64.90
2024-03-09T14:02:26.611Z,65.00
2024-03-09T14:04:54.184Z,65.00
2024-03-09T14:07:21.741Z,65.30
2024-03-09T14:09:52.266Z,64.60
2024-03-09T14:12:22.335Z,64.60
2024-03-09T14:14:49.917Z,65.10
2024-03-09T14:17:17.607Z,65.50
2024-03-09T14:19:45.155Z,64.60
2024-03-09T14:22:12.786Z,64.80
2024-03-09T14:24:40.333Z,65.10
2024-03-09T14:27:10.763Z,65.00
2024-03-09T14:29:38.343Z,64.50
2024-03-09T14:32:06.725Z,65.00
2024-03-09T14:34:34.385Z,64.90
2024-03-09T14:37:01.892Z,65.30
2024-03-09T14:39:29.492Z,65.70
2024-03-09T14:41:57.866Z,65.90
2024-03-09T14:44:25.502Z,66.30
2024-03-09T14:46:53.040Z,66.60
2024-03-09T14:49:20.644Z,67.00
2024-03-09T14:51:48.260Z,67.20
2024-03-09T14:54:19.254Z,68.10
2024-03-09T14:56:47.664Z,67.60
2024-03-09T14:59:15.340Z,67.60
2024-03-09T15:01:42.887Z,66.70
2024-03-09T15:04:11.219Z,65.70
2024-03-09T15:06:38.818Z,65.70
2024-03-09T15:09:06.394Z,65.50
2024-03-09T15:11:34.035Z,65.90
2024-03-09T15:14:02.377Z,66.80
2024-03-09T15:16:29.948Z,66.80
2024-03-09T15:18:58.324Z,67.50
2024-03-09T15:21:28.847Z,67.40
2024-03-09T15:23:56.378Z,67.70
2024-03-09T15:26:27.904Z,68.40
2024-03-09T15:28:52.357Z,69.30
2024-03-09T15:31:19.913Z,69.30
2024-03-09T15:33:48.272Z,71.10
2024-03-09T15:36:15.856Z,71.10
2024-03-09T15:38:43.786Z,71.70
2024-03-09T15:41:15.172Z,72.80
2024-03-09T15:43:42.515Z,74.00
2024-03-09T15:46:10.055Z,74.40
2024-03-09T15:48:37.654Z,74.70
2024-03-09T15:51:05.305Z,74.50
2024-03-09T15:53:35.928Z,74.00
2024-03-09T15:56:03.482Z,73.40
2024-03-09T15:58:31.050Z,73.40
2024-03-09T16:00:58.668Z,73.30
2024-03-09T16:03:26.236Z,73.10
2024-03-09T16:05:53.857Z,73.00
2024-03-09T16:08:22.255Z,72.90
2024-03-09T16:10:49.978Z,72.90
2024-03-09T16:13:17.393Z,72.60
2024-03-09T16:15:51.063Z,72.80
2024-03-09T16:18:18.553Z,72.60
2024-03-09T16:20:46.908Z,71.60
2024-03-09T16:23:17.385Z,71.60
2024-03-09T16:25:47.639Z,72.10
2024-03-09T16:28:15.205Z,72.00
2024-03-09T16:30:42.802Z,72.00
2024-03-09T16:33:10.444Z,71.90
2024-03-09T16:35:41.772Z,71.40
2024-03-09T16:38:09.488Z,71.30
2024-03-09T16:40:36.936Z,71.70
2024-03-09T16:43:04.460Z,71.50
2024-03-09T16:45:32.043Z,71.50
2024-03-09T16:47:59.700Z,71.80
2024-03-09T16:50:27.205Z,71.60
2024-03-09T16:52:57.523Z,71.60
2024-03-09T16:55:25.111Z,71.80
2024-03-09T16:57:52.665Z,71.70
2024-03-09T17:00:22.971Z,72.00
2024-03-09T17:02:54.249Z,72.80
2024-03-09T17:05:22.129Z,72.50
2024-03-09T17:07:49.503Z,73.10
2024-03-09T17:10:17.810Z,73.20
2024-03-09T17:12:46.234Z,73.10
2024-03-09T17:15:13.826Z,73.10
2024-03-09T17:17:41.531Z,73.40
2024-03-09T17:20:11.955Z,73.20
2024-03-09T17:22:39.518Z,73.40
2024-03-09T17:25:07.926Z,74.10
2024-03-09T17:27:35.524Z,73.30
2024-03-09T17:30:03.115Z,73.30
2024-03-09T17:32:31.533Z,73.50
2024-03-09T17:34:59.863Z,73.20
2024-03-09T17:37:27.411Z,73.30
2024-03-09T17:39:56.630Z,74.00
2024-03-09T17:42:25.048Z,74.00
2024-03-09T17:44:52.946Z,74.00
2024-03-09T17:47:20.587Z,74.60
2024-03-09T17:49:48.136Z,75.10
2024-03-09T17:52:15.729Z,75.80
2024-03-09T17:54:43.369Z,76.50
2024-03-09T17:57:11.006Z,77.20
2024-03-09T17:59:38.588Z,77.90
2024-03-09T18:02:06.209Z,78.40
2024-03-09T18:04:33.780Z,78.70
2024-03-09T18:07:01.368Z,79.10
2024-03-09T18:09:28.976Z,79.50
2024-03-09T18:11:56.578Z,79.80
2024-03-09T18:14:25.459Z,80.20
2024-03-09T18:16:51.793Z,80.10
2024-03-09T18:19:19.373Z,80.40
2024-03-09T18:21:46.940Z,80.90
2024-03-09T18:24:14.863Z,81.30
2024-03-09T18:26:42.172Z,81.60
2024-03-09T18:29:09.780Z,81.90
2024-03-09T18:31:38.165Z,82.80
2024-03-09T18:34:05.674Z,82.80
2024-03-09T18:36:37.465Z,83.30
2024-03-09T18:39:01.956Z,83.80
2024-03-09T18:41:29.626Z,84.20
2024-03-09T18:43:59.882Z,84.60
2024-03-09T18:46:33.100Z,84.50
2024-03-09T18:49:04.007Z,85.30
2024-03-09T18:51:31.586Z,85.30
2024-03-09T18:53:59.961Z,86.20
2024-03-09T18:56:27.620Z,85.50
2024-03-09T18:58:55.130Z,85.70
2024-03-09T19:01:22.724Z,85.80
2024-03-09T19:03:50.313Z,85.90
2024-03-09T19:06:17.905Z,86.10
2024-03-09T19:08:45.526Z,86.20
2024-03-09T19:11:13.267Z,86.30
2024-03-09T19:13:41.516Z,86.50
2024-03-09T19:16:09.036Z,86.50
2024-03-09T19:18:37.447Z,86.70
2024-03-09T19:21:04.961Z,86.70
2024-03-09T19:23:33.362Z,86.70
2024-03-09T19:26:01.742Z,86.70
2024-03-09T19:28:29.278Z,86.60
2024-03-09T19:30:57.646Z,87.10
2024-03-09T19:33:25.262Z,86.90
2024-03-09T19:35:52.816Z,87.10
2024-03-09T19:38:20.462Z,87.40
2024-03-09T19:40:48.030Z,87.60
2024-03-09T19:43:16.370Z,87.80
2024-03-09T19:45:43.966Z,87.70
2024-03-09T19:48:11.656Z,87.60
2024-03-09T19:50:39.158Z,87.50
2024-03-09T19:53:06.808Z,87.50
2024-03-09T19:55:34.380Z,87.60
2024-03-09T19:58:01.949Z,87.80
2024-03-09T20:00:30.306Z,88.10
2024-03-09T20:02:58.716Z,87.60
2024-03-09T20:05:26.585Z,87.40
2024-03-09T20:07:57.108Z,87.50
2024-03-09T20:10:23.920Z,87.50
2024-03-09T20:12:51.506Z,87.70
2024-03-09T20:15:19.263Z,87.60
2024-03-09T20:17:52.246Z,87.70
2024-03-09T20:20:19.976Z,87.30
2024-03-09T20:22:48.232Z,86.60
2024-03-09T20:25:16.536Z,86.30
2024-03-09T20:27:44.294Z,86.30
2024-03-09T20:30:12.757Z,86.90
2024-03-09T20:32:40.222Z,86.80
2024-03-09T20:35:07.795Z,86.80
2024-03-09T20:37:35.384Z,87.30
2024-03-09T20:40:03.739Z,88.10
2024-03-09T20:42:31.323Z,87.60
2024-03-09T20:44:59.704Z,88.20
2024-03-09T20:47:28.163Z,87.90
2024-03-09T20:49:55.683Z,87.90
2024-03-09T20:52:23.266Z,88.30
2024-03-09T20:54:50.841Z,88.70
2024-03-09T20:57:18.451Z,89.00
2024-03-09T20:59:46.078Z,89.30
2024-03-09T21:02:13.712Z,89.80
2024-03-09T21:04:42.100Z,90.20
2024-03-09T21:07:09.625Z,90.10
2024-03-09T21:09:37.209Z,90.20
2024-03-09T21:12:04.907Z,90.30
2024-03-09T21:14:32.411Z,90.40
2024-03-09T21:17:00.101Z,90.40
2024-03-09T21:19:27.576Z,90.50
2024-03-09T21:21:56.462Z,90.50
2024-03-09T21:24:23.560Z,90.50
2024-03-09T21:26:51.176Z,90.30
2024-03-09T21:29:18.827Z,90.30
2024-03-09T21:31:46.375Z,90.40
2024-03-09T21:34:13.936Z,90.40
2024-03-09T21:36:41.550Z,90.40
2024-03-09T21:39:09.124Z,90.50
2024-03-09T21:41:36.728Z,90.40
2024-03-09T21:44:05.227Z,90.20
2024-03-09T21:46:32.666Z,90.10
2024-03-09T21:49:00.223Z,90.10
2024-03-09T21:51:28.617Z,90.10
2024-03-09T21:53:57.009Z,90.20
2024-03-09T21:56:24.776Z,90.00
2024-03-09T21:58:52.191Z,90.00
2024-03-09T22:01:19.850Z,90.10
2024-03-09T22:03:48.116Z,90.20
2024-03-09T22:06:15.782Z,90.10
2024-03-09T22:08:43.340Z,90.10
2024-03-09T22:11:10.996Z,90.00
2024-03-09T22:13:39.299Z,90.20
2024-03-09T22:16:06.874Z,90.10
2024-03-09T22:18:35.234Z,90.20
2024-03-09T22:21:02.854Z,90.20
2024-03-09T22:23:30.614Z,90.30
2024-03-09T22:25:59.197Z,90.30
2024-03-09T22:28:27.731Z,90.20
2024-03-09T22:30:56.164Z,90.30
2024-03-09T22:33:23.915Z,90.20
2024-03-09T22:35:51.667Z,90.20
2024-03-09T22:38:19.370Z,90.30
2024-03-09T22:40:47.123Z,90.40
2024-03-09T22:43:14.662Z,90.50
2024-03-09T22:45:42.253Z,90.60
2024-03-09T22:48:09.865Z,90.60
2024-03-09T22:50:37.490Z,90.50
2024-03-09T22:53:05.156Z,90.60
2024-03-09T22:55:32.711Z,90.80
2024-03-09T22:58:00.416Z,90.90
2024-03-09T23:00:28.030Z,90.30
2024-03-09T23:02:55.516Z,89.80
2024-03-09T23:05:23.172Z,89.70
2024-03-09T23:07:50.702Z,90.10
2024-03-09T23:10:18.270Z,90.00
2024-03-09T23:12:45.882Z,89.60
2024-03-09T23:15:16.166Z,89.80
2024-03-09T23:17:44.617Z,90.00
2024-03-09T23:20:14.665Z,90.00
2024-03-09T23:22:42.211Z,90.10
2024-03-09T23:25:09.836Z,90.30
2024-03-09T23:27:37.460Z,90.50
2024-03-09T23:30:05.914Z,90.80
2024-03-09T23:32:33.597Z,90.70
2024-03-09T23:35:01.888Z,90.90
2024-03-09T23:37:30.218Z,90.90
2024-03-09T23:39:57.835Z,90.80
2024-03-09T23:42:25.458Z,90.80
2024-03-09T23:44:53.050Z,90.60
2024-03-09T23:47:21.472Z,90.60
2024-03-09T23:49:49.028Z,90.60
2024-03-09T23:52:16.595Z,90.70
2024-03-09T23:54:44.171Z,90.80
2024-03-09T23:57:11.780Z,90.90
2024-03-09T23:59:39.419Z,91.00
